Time;durP1;ratioP1;P1;durP2;ratioP2;P2;SDS_P1;SDS_P2;PMS_P1;PMS_P2;Temp;Humidity;BMP_temperature;BMP_pressure;BME280_temperature;BME280_humidity;BME280_pressure;Samples;Min_cycle;Max_cycle;Signal;HPM_P1;HPM_P2
2021/10/28 17:42:55;;;;;;;25.88;21.02;;;;;;;11.39;74.75;100360.84;10161634;29;20083;-69
2021/10/28 17:54:19;;;;;;;28.25;21.98;;;;;;;11.45;74.60;100349.66;10136199;29;20048;-69
2021/10/28 17:59:20;;;;;;;28.38;21.00;;;;;;;11.29;75.79;100361.59;10147850;29;20511;-70
2021/10/28 18:04:22;;;;;;;23.70;20.60;;;;;;;11.35;75.66;100354.06;10151496;29;20128;-69
2021/10/28 18:09:28;;;;;;;25.70;20.92;;;;;;;11.51;74.84;100349.16;10154015;29;20683;-68
2021/10/28 18:27:14;;;;;;;26.10;21.90;;;;;;;11.58;75.09;100360.19;10194310;29;20491;-71
2021/10/28 18:32:15;;;;;;;27.67;21.48;;;;;;;11.56;74.88;100352.31;10194937;29;20166;-70
2021/10/28 18:37:20;;;;;;;23.80;19.63;;;;;;;11.59;75.06;100354.72;10228025;29;20051;-69
2021/10/28 18:42:22;;;;;;;22.85;19.13;;;;;;;11.58;74.90;100345.03;10199299;29;20052;-72
2021/10/28 18:47:23;;;;;;;25.75;21.50;;;;;;;11.59;75.01;100344.06;10201572;29;20170;-69
2021/10/28 18:52:25;;;;;;;22.75;20.10;;;;;;;11.49;75.05;100343.13;10203068;29;20043;-70
2021/10/28 18:57:26;;;;;;;27.08;21.20;;;;;;;11.50;75.26;100331.50;10192195;29;20122;-68
2021/10/28 19:02:29;;;;;;;25.92;20.80;;;;;;;11.45;75.51;100317.69;10216673;28;20063;-69
2021/10/28 19:07:31;;;;;;;24.42;19.88;;;;;;;11.40;75.58;100314.56;10227517;28;20040;-70
2021/10/28 19:29:59;;;;;;;25.23;20.50;;;;;;;11.13;76.84;100291.91;11213290;23;20048;-64
2021/10/28 19:35:03;;;;;;;25.17;20.02;;;;;;;11.05;77.18;100284.53;10153755;23;20064;-64
2021/10/28 19:45:20;;;;;;;24.90;21.02;;;;;;;10.86;77.71;100281.69;10138329;29;20426;-63
2021/10/28 19:50:21;;;;;;;23.10;20.10;;;;;;;10.86;78.04;100277.19;10157417;28;20058;-63
2021/10/28 19:55:23;;;;;;;24.27;20.95;;;;;;;10.82;78.16;100262.44;10181553;28;20433;-65
2021/10/28 20:21:16;;;;;;;24.58;21.35;;;;;;;10.50;78.38;100252.56;10174780;28;20469;-65
2021/10/28 20:26:19;;;;;;;26.45;22.02;;;;;;;10.44;78.97;100248.59;10172979;28;20551;-64
2021/10/28 20:31:22;;;;;;;25.90;22.65;;;;;;;10.44;78.40;100250.41;10168710;28;20047;-64
2021/10/28 20:41:28;;;;;;;24.33;21.77;;;;;;;10.27;79.29;100246.41;10171569;28;20819;-64
2021/10/28 20:46:31;;;;;;;26.67;22.45;;;;;;;10.26;79.44;100256.19;10176483;28;20061;-66
2021/10/28 20:51:33;;;;;;;27.55;23.50;;;;;;;10.20;79.25;100254.00;10175326;28;20051;-64
2021/10/28 20:56:34;;;;;;;27.35;23.35;;;;;;;10.20;79.39;100248.69;10177004;28;20513;-70
2021/10/28 21:01:36;;;;;;;30.17;24.33;;;;;;;10.17;79.40;100250.75;10168592;28;20552;-65
2021/10/28 21:06:38;;;;;;;25.80;23.00;;;;;;;10.04;79.90;100240.22;10164242;28;20063;-65
2021/10/28 21:11:40;;;;;;;24.75;22.00;;;;;;;10.04;79.72;100246.41;10183647;28;20052;-67
2021/10/28 21:16:42;;;;;;;26.30;22.80;;;;;;;10.07;80.09;100250.63;10186379;28;20146;-66
2021/10/28 21:21:44;;;;;;;24.77;21.92;;;;;;;10.04;79.92;100248.22;10181951;28;20134;-67
2021/10/28 21:26:46;;;;;;;30.33;23.83;;;;;;;10.03;80.33;100255.34;10176473;28;20135;-65
2021/10/28 21:31:48;;;;;;;29.05;23.17;;;;;;;9.97;79.86;100246.97;10176063;28;20052;-66
2021/10/28 21:36:49;;;;;;;28.30;23.33;;;;;;;9.95;80.02;100252.41;10174651;28;20052;-67
2021/10/28 21:41:51;;;;;;;28.33;23.88;;;;;;;9.89;80.17;100259.09;10178354;28;20131;-67
2021/10/28 21:46:52;;;;;;;30.85;24.33;;;;;;;9.86;79.87;100247.81;10176573;28;20131;-65
2021/10/28 21:51:56;;;;;;;30.17;24.75;;;;;;;9.81;79.99;100232.22;10175371;28;20433;-67
2021/10/28 21:57:51;;;;;;;28.30;22.87;;;;;;;9.79;80.18;100243.94;10175238;28;20159;-64
2021/10/28 22:28:47;;;;;;;27.92;22.85;;;;;;;9.59;80.37;100210.94;10180730;28;20785;-66
2021/10/28 22:33:49;;;;;;;27.92;24.75;;;;;;;9.57;80.33;100207.56;10176746;28;21346;-65
2021/10/28 22:38:58;;;;;;;30.13;24.10;;;;;;;9.53;80.43;100202.50;10185780;28;20047;-64
2021/10/28 22:43:59;;;;;;;27.35;23.27;;;;;;;9.54;80.50;100206.81;10181261;28;20103;-66
2021/10/28 22:49:01;;;;;;;25.10;21.77;;;;;;;9.60;80.88;100204.66;10186523;28;20047;-65
2021/10/28 22:54:02;;;;;;;28.23;23.67;;;;;;;9.50;80.24;100207.19;10184028;28;20044;-66
2021/10/28 22:59:05;;;;;;;26.92;23.00;;;;;;;9.45;80.88;100193.41;10190846;28;20051;-65
2021/10/28 23:25:26;;;;;;;28.10;23.55;;;;;;;9.43;80.40;100161.66;10186058;28;20634;-66
2021/10/28 23:30:28;;;;;;;28.00;22.92;;;;;;;9.44;81.11;100165.97;10190183;28;20150;-66
2021/10/28 23:35:30;;;;;;;27.63;22.38;;;;;;;9.36;80.74;100139.16;10183547;28;20691;-65
2021/10/28 23:40:32;;;;;;;29.00;23.10;;;;;;;9.36;80.55;100132.03;10179359;28;20078;-65
2021/10/28 23:45:33;;;;;;;28.05;23.20;;;;;;;9.39;80.79;100130.97;10177901;28;20048;-65
2021/10/28 23:50:34;;;;;;;28.30;23.25;;;;;;;9.45;80.70;100127.81;10181680;28;20052;-64
2021/10/28 23:55:36;;;;;;;29.88;23.23;;;;;;;9.40;80.67;100123.81;10176716;28;20126;-65
